Time;durP1;ratioP1;P1;durP2;ratioP2;P2;SDS_P1;SDS_P2;PMS_P1;PMS_P2;Temp;Humidity;BMP_temperature;BMP_pressure;BME280_temperature;BME280_humidity;BME280_pressure;Samples;Min_cycle;Max_cycle;Signal;HPM_P1;HPM_P2
2023/07/02 00:00:07;;;;;;;6.15;3.63;;;18.30;99.90;;;;;;5068911;28;20906;-75
2023/07/02 00:02:35;;;;;;;8.52;3.70;;;18.20;99.90;;;;;;5071052;28;20228;-78
2023/07/02 00:05:03;;;;;;;6.90;3.88;;;18.10;99.90;;;;;;5069475;28;20200;-76
2023/07/02 00:07:30;;;;;;;6.53;4.40;;;18.00;99.90;;;;;;5070035;28;20203;-76
2023/07/02 00:09:57;;;;;;;6.38;4.18;;;17.90;99.90;;;;;;5061231;28;20193;-78
2023/07/02 00:12:24;;;;;;;6.88;4.13;;;17.80;99.90;;;;;;5061782;28;20244;-77
2023/07/02 00:14:52;;;;;;;6.82;4.20;;;17.80;99.90;;;;;;5069054;28;20290;-76
2023/07/02 00:17:20;;;;;;;8.35;4.47;;;17.80;99.90;;;;;;5062465;28;20223;-78
2023/07/02 00:19:51;;;;;;;6.75;3.92;;;17.80;99.90;;;;;;5052198;28;20193;-77
2023/07/02 00:22:19;;;;;;;7.20;4.10;;;17.70;99.90;;;;;;5044813;28;20240;-77
2023/07/02 00:24:46;;;;;;;7.15;4.03;;;17.70;99.90;;;;;;5065282;28;20222;-76
2023/07/02 00:27:13;;;;;;;6.30;3.92;;;17.70;99.90;;;;;;5069263;28;20208;-77
2023/07/02 00:29:40;;;;;;;6.38;4.10;;;17.70;99.90;;;;;;5062105;28;20209;-77
2023/07/02 00:32:06;;;;;;;7.03;3.67;;;17.70;99.90;;;;;;5049738;28;20656;-79
2023/07/02 00:34:33;;;;;;;5.95;3.90;;;17.70;99.90;;;;;;5065035;28;20679;-76
2023/07/02 00:37:00;;;;;;;8.05;3.90;;;17.70;99.90;;;;;;5052700;28;20262;-77
2023/07/02 00:39:27;;;;;;;8.02;4.50;;;17.70;99.90;;;;;;5068645;28;20204;-76
2023/07/02 00:41:59;;;;;;;9.95;4.30;;;17.70;99.90;;;;;;5068417;28;20220;-77
2023/07/02 00:44:29;;;;;;;6.72;3.75;;;17.70;99.90;;;;;;5069742;28;20219;-78
2023/07/02 00:46:58;;;;;;;6.57;3.97;;;17.70;99.90;;;;;;5052222;28;20208;-77
2023/07/02 00:49:25;;;;;;;8.15;4.13;;;17.70;99.90;;;;;;5045898;28;20285;-76
2023/07/02 00:51:52;;;;;;;5.55;4.20;;;17.70;99.90;;;;;;5066656;28;20209;-77
2023/07/02 00:54:19;;;;;;;6.03;3.85;;;17.70;99.90;;;;;;5047668;28;20200;-77
2023/07/02 00:56:46;;;;;;;6.65;4.20;;;17.70;99.90;;;;;;5048910;28;20205;-76
2023/07/02 00:59:13;;;;;;;6.13;3.95;;;17.70;99.90;;;;;;5051577;28;20337;-77
2023/07/02 01:01:40;;;;;;;6.72;4.03;;;17.60;99.90;;;;;;5061291;28;20232;-78
2023/07/02 01:04:12;;;;;;;6.28;4.20;;;17.70;99.90;;;;;;5062814;28;20613;-76
2023/07/02 01:06:40;;;;;;;6.13;4.18;;;17.60;99.90;;;;;;5051520;28;20244;-76
2023/07/02 01:09:09;;;;;;;5.32;4.05;;;17.60;99.90;;;;;;5068948;28;20204;-78
2023/07/02 01:11:44;;;;;;;7.10;4.00;;;17.50;99.90;;;;;;5050517;28;20708;-77
2023/07/02 01:14:33;;;;;;;5.85;3.78;;;17.60;99.90;;;;;;5063719;28;20960;-78
2023/07/02 01:17:03;;;;;;;4.65;3.50;;;17.60;99.90;;;;;;5069007;28;20201;-76
2023/07/02 01:19:51;;;;;;;7.18;3.78;;;17.50;99.90;;;;;;5068730;28;20204;-78
2023/07/02 01:22:20;;;;;;;7.32;3.90;;;17.50;99.90;;;;;;5048450;28;20223;-77
2023/07/02 01:24:48;;;;;;;8.90;4.00;;;17.50;99.90;;;;;;5061313;28;20629;-76
2023/07/02 01:27:16;;;;;;;8.18;3.78;;;17.40;99.90;;;;;;5042607;28;20212;-79
2023/07/02 01:29:45;;;;;;;7.93;3.88;;;17.40;99.90;;;;;;5049636;28;20220;-79
2023/07/02 01:32:12;;;;;;;8.70;3.88;;;17.30;99.90;;;;;;5055982;28;20215;-77
2023/07/02 01:34:39;;;;;;;8.77;4.15;;;17.30;99.90;;;;;;5048417;28;20205;-78
2023/07/02 01:37:07;;;;;;;8.95;3.95;;;17.30;99.90;;;;;;5050979;28;20219;-79
2023/07/02 01:39:35;;;;;;;10.90;4.80;;;17.30;99.90;;;;;;5061034;28;20266;-77
2023/07/02 01:42:15;;;;;;;8.38;4.10;;;17.30;99.90;;;;;;5067073;28;20236;-80
2023/07/02 01:44:44;;;;;;;9.45;4.07;;;17.30;99.90;;;;;;5050672;28;20216;-76
2023/07/02 01:47:17;;;;;;;7.50;3.88;;;17.30;99.90;;;;;;5068254;28;20300;-78
2023/07/02 01:49:44;;;;;;;8.55;4.18;;;17.30;99.90;;;;;;5060453;28;20254;-77
2023/07/02 01:52:11;;;;;;;10.07;4.50;;;17.20;99.90;;;;;;5050864;28;20217;-79
2023/07/02 01:54:38;;;;;;;8.53;4.70;;;17.20;99.90;;;;;;5068999;28;20201;-78
2023/07/02 01:57:08;;;;;;;11.17;4.60;;;17.10;99.90;;;;;;5050951;28;20240;-79
2023/07/02 01:59:35;;;;;;;15.50;4.60;;;17.10;99.90;;;;;;5060236;28;20220;-76
2023/07/02 02:02:03;;;;;;;12.40;4.40;;;17.00;99.90;;;;;;5068416;28;20232;-77
2023/07/02 02:04:31;;;;;;;12.37;4.87;;;16.90;99.90;;;;;;5050801;28;20920;-77
2023/07/02 02:06:58;;;;;;;11.50;5.03;;;17.40;99.90;;;;;;5067973;28;20842;-77
2023/07/02 02:09:25;;;;;;;8.33;4.10;;;17.00;99.90;;;;;;5049802;28;20977;-80
2023/07/02 02:11:52;;;;;;;13.97;5.27;;;16.70;99.90;;;;;;5041954;28;20238;-78
2023/07/02 02:14:19;;;;;;;12.60;4.30;;;16.70;99.90;;;;;;5050542;28;20205;-77
2023/07/02 02:16:46;;;;;;;16.80;5.30;;;16.90;99.90;;;;;;5050502;28;20247;-77
2023/07/02 02:19:14;;;;;;;14.30;4.87;;;16.50;99.90;;;;;;5045258;28;20703;-78
2023/07/02 02:21:42;;;;;;;13.37;4.87;;;16.80;99.90;;;;;;5050843;28;21126;-77
2023/07/02 02:24:10;;;;;;;15.07;4.83;;;16.30;99.90;;;;;;5050148;28;20209;-76
2023/07/02 02:26:37;;;;;;;11.77;5.00;;;16.20;99.90;;;;;;5061806;28;20267;-77
2023/07/02 02:29:04;;;;;;;14.60;5.50;;;16.20;99.90;;;;;;5065769;28;20208;-76
2023/07/02 02:31:31;;;;;;;10.20;5.33;;;16.10;99.90;;;;;;5049370;28;20240;-76
2023/07/02 02:33:58;;;;;;;13.30;4.70;;;16.00;99.90;;;;;;5067279;28;20915;-77
2023/07/02 02:36:26;;;;;;;16.43;6.17;;;16.00;99.90;;;;;;5066919;28;20653;-76
2023/07/02 02:38:56;;;;;;;9.50;5.30;;;15.90;99.90;;;;;;5047496;28;20204;-76
2023/07/02 02:41:24;;;;;;;8.33;4.80;;;15.90;99.90;;;;;;5067550;28;20209;-79
2023/07/02 02:43:51;;;;;;;11.03;5.13;;;15.80;99.90;;;;;;5049581;28;20227;-78
2023/07/02 02:46:24;;;;;;;9.90;5.07;;;15.70;99.90;;;;;;5048942;28;20680;-77
2023/07/02 02:48:54;;;;;;;12.63;5.57;;;15.70;99.90;;;;;;5066058;28;20219;-77
2023/07/02 02:51:27;;;;;;;14.60;4.77;;;15.70;99.90;;;;;;5059997;28;20648;-78
2023/07/02 02:53:54;;;;;;;10.57;5.87;;;15.60;99.90;;;;;;5049363;28;20241;-79
2023/07/02 02:56:20;;;;;;;8.80;4.73;;;15.60;99.90;;;;;;5050014;28;20319;-79
2023/07/02 02:58:47;;;;;;;12.33;6.00;;;15.70;99.90;;;;;;5067240;28;20224;-77
2023/07/02 03:01:14;;;;;;;11.10;5.03;;;15.60;99.90;;;;;;5065163;28;20704;-77
2023/07/02 03:03:45;;;;;;;12.50;5.60;;;15.60;99.90;;;;;;5049165;28;20743;-78
2023/07/02 03:06:14;;;;;;;15.17;5.70;;;15.50;99.90;;;;;;5067628;28;20207;-77
2023/07/02 03:08:42;;;;;;;12.27;5.37;;;15.50;99.90;;;;;;5041505;28;20371;-78
2023/07/02 03:11:08;;;;;;;13.73;5.50;;;15.40;99.90;;;;;;5067290;28;20315;-78
2023/07/02 03:13:35;;;;;;;15.57;5.93;;;15.40;99.90;;;;;;5050855;28;20208;-76
2023/07/02 03:16:02;;;;;;;9.83;5.53;;;15.40;99.90;;;;;;5050603;28;20250;-76
2023/07/02 03:18:30;;;;;;;14.23;5.53;;;15.40;99.90;;;;;;5049677;28;20199;-77
2023/07/02 03:20:57;;;;;;;12.90;6.03;;;15.40;99.90;;;;;;5049876;28;20710;-76
2023/07/02 03:23:24;;;;;;;10.03;5.60;;;15.30;99.90;;;;;;5050261;28;20224;-76
2023/07/02 03:25:51;;;;;;;15.80;5.73;;;15.30;99.90;;;;;;5070488;28;20215;-78
2023/07/02 03:28:18;;;;;;;11.90;5.87;;;15.30;99.90;;;;;;5066254;28;20204;-77
2023/07/02 03:30:45;;;;;;;15.90;6.07;;;15.20;99.90;;;;;;5071241;28;20214;-78
2023/07/02 03:33:12;;;;;;;13.03;6.00;;;15.20;99.90;;;;;;5072116;28;20319;-76
2023/07/02 03:35:39;;;;;;;13.23;6.17;;;15.20;99.90;;;;;;5061299;28;20672;-76
2023/07/02 03:38:06;;;;;;;14.53;6.50;;;15.20;99.90;;;;;;5081505;28;20222;-76
2023/07/02 03:40:33;;;;;;;16.33;6.03;;;15.10;99.90;;;;;;5077275;28;20192;-78
2023/07/02 03:43:00;;;;;;;16.37;6.43;;;15.20;99.90;;;;;;5041912;28;20287;-76
2023/07/02 03:45:26;;;;;;;12.20;5.40;;;15.10;99.90;;;;;;5062698;28;20239;-77
2023/07/02 03:47:54;;;;;;;14.13;5.93;;;15.10;99.90;;;;;;5057316;28;20209;-78
2023/07/02 03:50:21;;;;;;;15.37;6.33;;;15.20;99.90;;;;;;5071873;28;20315;-77
2023/07/02 03:52:48;;;;;;;14.17;5.43;;;15.10;99.90;;;;;;5053781;28;20211;-78
2023/07/02 03:55:15;;;;;;;15.13;6.40;;;15.10;99.90;;;;;;5070843;28;20861;-79
2023/07/02 03:57:43;;;;;;;11.73;5.57;;;15.10;99.90;;;;;;5053620;28;20212;-77
2023/07/02 04:00:11;;;;;;;14.90;5.77;;;15.10;99.90;;;;;;5063055;28;20355;-77
2023/07/02 04:02:38;;;;;;;15.83;6.43;;;15.10;99.90;;;;;;5065379;28;20311;-79
2023/07/02 04:05:05;;;;;;;10.77;5.33;;;15.10;99.90;;;;;;5052812;28;20229;-76
2023/07/02 04:07:33;;;;;;;13.77;6.60;;;15.10;99.90;;;;;;5054043;28;20223;-77
2023/07/02 04:09:59;;;;;;;14.47;6.43;;;15.10;99.90;;;;;;5050613;28;20623;-77
2023/07/02 04:12:27;;;;;;;16.07;6.37;;;15.10;99.90;;;;;;5069596;28;20232;-81
2023/07/02 04:14:54;;;;;;;11.30;5.67;;;15.20;99.90;;;;;;5051007;28;20214;-77
2023/07/02 04:17:21;;;;;;;16.10;6.67;;;15.20;99.90;;;;;;5061912;28;20291;-77
2023/07/02 04:19:48;;;;;;;11.77;5.80;;;15.10;99.90;;;;;;5052553;28;20209;-77
2023/07/02 04:22:15;;;;;;;14.50;6.07;;;15.10;99.90;;;;;;5051643;28;20228;-76
2023/07/02 04:24:42;;;;;;;13.17;6.23;;;15.20;99.90;;;;;;5053075;28;20209;-77
2023/07/02 04:27:13;;;;;;;16.03;6.13;;;15.20;99.90;;;;;;5070479;28;20232;-77
2023/07/02 04:30:00;;;;;;;13.67;5.50;;;15.20;99.90;;;;;;5068200;28;20219;-77
2023/07/02 04:32:27;;;;;;;19.07;6.27;;;15.20;99.90;;;;;;5051610;28;20211;-79
2023/07/02 04:34:54;;;;;;;18.07;6.20;;;15.20;99.90;;;;;;5069844;28;20235;-76
2023/07/02 04:37:21;;;;;;;16.00;6.27;;;15.20;99.90;;;;;;5062965;28;20227;-77
2023/07/02 04:39:48;;;;;;;16.97;6.27;;;15.30;99.90;;;;;;5067545;28;20250;-77
2023/07/02 04:42:15;;;;;;;18.87;6.23;;;15.30;99.90;;;;;;5069781;28;20278;-78
2023/07/02 04:44:43;;;;;;;14.67;6.17;;;15.40;99.90;;;;;;5070087;28;20239;-78
2023/07/02 04:47:10;;;;;;;17.67;6.40;;;15.30;99.90;;;;;;5043709;28;20200;-77
2023/07/02 04:49:38;;;;;;;17.37;6.33;;;15.40;99.90;;;;;;5068977;28;20205;-78
2023/07/02 04:52:05;;;;;;;16.63;5.97;;;15.50;99.90;;;;;;5051437;28;20205;-77
2023/07/02 04:54:32;;;;;;;13.27;5.97;;;15.50;99.90;;;;;;5069247;28;20212;-77
2023/07/02 04:56:59;;;;;;;13.13;5.80;;;15.50;99.90;;;;;;5048696;28;20209;-79
2023/07/02 04:59:27;;;;;;;13.10;5.77;;;15.40;99.90;;;;;;5056839;28;20204;-80
2023/07/02 05:01:54;;;;;;;19.30;6.70;;;15.50;99.90;;;;;;5045208;28;20227;-78
2023/07/02 05:04:21;;;;;;;13.13;6.73;;;15.50;99.90;;;;;;5051179;28;20228;-79
2023/07/02 05:06:48;;;;;;;14.27;6.40;;;15.60;99.90;;;;;;5061920;28;20193;-78
2023/07/02 05:09:15;;;;;;;15.37;6.63;;;15.60;99.90;;;;;;5050666;28;20211;-78
2023/07/02 05:11:42;;;;;;;16.13;6.30;;;15.70;99.90;;;;;;5047368;28;20252;-79
2023/07/02 05:14:08;;;;;;;15.87;6.07;;;15.70;99.90;;;;;;5058521;28;20670;-78
2023/07/02 05:16:35;;;;;;;17.10;6.27;;;15.80;99.90;;;;;;5051351;28;20224;-78
2023/07/02 05:19:02;;;;;;;13.27;5.87;;;15.80;99.90;;;;;;5050827;28;20542;-78
2023/07/02 05:21:29;;;;;;;15.60;6.20;;;15.80;99.90;;;;;;5050836;28;20212;-79
2023/07/02 05:23:56;;;;;;;16.03;5.93;;;15.90;99.90;;;;;;5058197;28;20278;-78
2023/07/02 05:26:23;;;;;;;19.20;6.73;;;16.00;99.90;;;;;;5046987;28;20201;-77
2023/07/02 05:28:50;;;;;;;13.57;6.30;;;16.00;99.90;;;;;;5050670;28;20217;-78
2023/07/02 05:31:17;;;;;;;15.45;6.10;;;16.40;99.90;;;;;;5051450;28;20220;-78
2023/07/02 05:33:44;;;;;;;11.27;5.15;;;17.00;99.90;;;;;;5049396;28;20208;-78
2023/07/02 05:36:11;;;;;;;11.90;5.65;;;17.90;99.90;;;;;;5059166;28;20532;-77
2023/07/02 05:38:38;;;;;;;16.20;5.78;;;18.90;99.90;;;;;;5068623;28;20213;-79
2023/07/02 05:41:05;;;;;;;18.02;5.95;;;19.80;99.90;;;;;;5066304;28;20709;-78
2023/07/02 05:43:32;;;;;;;11.77;5.97;;;20.40;99.90;;;;;;5050421;28;20239;-77
2023/07/02 05:46:02;;;;;;;16.25;6.18;;;20.80;99.90;;;;;;5056066;28;20217;-80
2023/07/02 05:48:30;;;;;;;16.80;6.32;;;21.40;99.90;;;;;;5050913;28;20201;-78
2023/07/02 05:50:57;;;;;;;18.38;6.25;;;22.00;99.90;;;;;;5048728;28;20211;-81
2023/07/02 05:53:24;;;;;;;14.05;5.63;;;22.30;99.90;;;;;;5063650;28;20574;-79
2023/07/02 05:55:51;;;;;;;15.38;6.65;;;22.80;99.90;;;;;;5046188;28;20216;-78
2023/07/02 05:58:18;;;;;;;13.57;5.93;;;22.80;99.90;;;;;;5053692;28;20201;-79
2023/07/02 06:00:49;;;;;;;14.65;6.50;;;23.20;99.90;;;;;;5050204;28;20613;-77
2023/07/02 06:03:20;;;;;;;18.00;6.25;;;23.60;99.90;;;;;;5049587;28;20216;-79
2023/07/02 06:05:50;;;;;;;12.77;5.55;;;24.00;99.90;;;;;;5039384;28;20205;-77
2023/07/02 06:08:18;;;;;;;15.65;6.63;;;24.10;99.90;;;;;;5061043;28;20220;-78
2023/07/02 06:10:48;;;;;;;13.50;6.07;;;24.30;99.90;;;;;;5066659;28;20697;-78
2023/07/02 06:13:15;;;;;;;18.77;7.75;;;24.50;99.90;;;;;;5062748;28;20228;-78
2023/07/02 06:15:42;;;;;;;15.95;6.15;;;24.40;99.90;;;;;;5049062;28;20224;-78
2023/07/02 06:18:12;;;;;;;11.35;5.78;;;24.70;99.90;;;;;;5055885;28;20299;-79
2023/07/02 06:20:39;;;;;;;13.73;5.50;;;24.50;99.90;;;;;;5046785;28;20259;-80
2023/07/02 06:23:06;;;;;;;15.80;5.95;;;24.60;99.90;;;;;;5058039;28;20239;-81
2023/07/02 06:25:33;;;;;;;15.35;6.05;;;24.70;99.90;;;;;;5064433;28;20201;-78
2023/07/02 06:28:00;;;;;;;15.48;5.38;;;25.00;99.90;;;;;;5064854;28;20227;-80
2023/07/02 06:30:27;;;;;;;14.35;5.20;;;24.90;99.90;;;;;;5063314;28;20235;-79
2023/07/02 06:32:54;;;;;;;13.40;5.75;;;24.90;99.90;;;;;;5059396;28;20239;-80
2023/07/02 06:35:22;;;;;;;13.38;5.45;;;25.30;99.90;;;;;;5044663;28;20212;-82
2023/07/02 06:37:49;;;;;;;18.42;6.35;;;25.20;99.90;;;;;;5056996;28;20713;-78
2023/07/02 06:40:16;;;;;;;16.92;5.50;;;25.20;99.90;;;;;;5067365;28;20204;-81
2023/07/02 06:42:43;;;;;;;13.52;5.18;;;25.00;99.90;;;;;;5063917;28;20208;-80
2023/07/02 06:45:09;;;;;;;13.50;5.05;;;25.20;99.90;;;;;;5048912;28;20233;-81
2023/07/02 06:47:37;;;;;;;16.17;5.13;;;25.60;99.90;;;;;;5050915;28;20216;-82
2023/07/02 06:50:05;;;;;;;12.63;5.38;;;26.00;99.90;;;;;;5048486;28;20197;-80
2023/07/02 06:52:35;;;;;;;12.38;5.13;;;26.00;99.90;;;;;;5057387;28;20205;-78
2023/07/02 06:55:03;;;;;;;13.40;5.32;;;26.20;99.90;;;;;;5047047;28;20212;-80
2023/07/02 06:57:30;;;;;;;11.52;5.35;;;26.30;99.90;;;;;;5063619;28;20197;-80
2023/07/02 06:59:59;;;;;;;11.32;4.95;;;26.60;99.90;;;;;;5063263;28;20240;-78
2023/07/02 07:02:27;;;;;;;13.60;5.93;;;;;;;;;;5044620;28;20208;-78
2023/07/02 07:04:54;;;;;;;11.40;4.88;;;26.40;99.90;;;;;;5059691;28;20346;-80
2023/07/02 07:07:21;;;;;;;15.52;5.90;;;26.30;99.90;;;;;;5043013;28;20231;-80
2023/07/02 07:09:48;;;;;;;11.88;5.47;;;25.80;99.90;;;;;;5049424;28;20208;-78
2023/07/02 07:12:15;;;;;;;10.60;4.82;;;25.20;99.90;;;;;;5044754;28;20687;-81
2023/07/02 07:14:43;;;;;;;10.52;5.20;;;24.60;99.90;;;;;;5039347;28;20487;-78
2023/07/02 07:17:10;;;;;;;16.65;5.28;;;24.00;99.90;;;;;;5064568;28;20223;-78
2023/07/02 07:19:37;;;;;;;11.57;4.88;;;23.50;99.90;;;;;;5052104;28;20323;-79
2023/07/02 07:22:04;;;;;;;15.23;5.20;;;22.80;99.90;;;;;;5059193;28;20220;-79
2023/07/02 07:24:30;;;;;;;11.95;5.13;;;22.80;99.90;;;;;;5055405;28;20228;-79
2023/07/02 07:26:58;;;;;;;10.32;4.63;;;22.70;99.90;;;;;;5046510;28;20205;-79
2023/07/02 07:29:25;;;;;;;13.52;5.63;;;22.60;99.90;;;;;;5046681;28;20212;-79
2023/07/02 07:31:52;;;;;;;14.27;5.68;;;22.20;99.90;;;;;;5054078;28;20212;-78
2023/07/02 07:34:19;;;;;;;14.82;5.28;;;21.90;99.90;;;;;;5073247;28;20291;-78
2023/07/02 07:36:46;;;;;;;14.70;4.82;;;22.20;99.90;;;;;;5055448;28;20673;-76
2023/07/02 07:39:13;;;;;;;11.15;4.95;;;22.70;99.90;;;;;;5056295;28;20200;-76
2023/07/02 07:41:39;;;;;;;11.05;4.95;;;23.30;99.90;;;;;;5054582;28;20224;-78
2023/07/02 07:44:07;;;;;;;8.70;4.60;;;;;;;;;;5046119;28;20293;-78
2023/07/02 07:46:34;;;;;;;12.80;4.60;;;24.70;99.90;;;;;;5055255;28;20216;-78
2023/07/02 07:49:00;;;;;;;13.60;5.10;;;24.90;99.90;;;;;;5072311;28;20485;-79
2023/07/02 07:51:27;;;;;;;11.10;4.22;;;24.60;99.90;;;;;;5055625;28;20188;-78
2023/07/02 07:53:57;;;;;;;8.80;4.10;;;24.60;99.90;;;;;;5052573;28;20287;-82
2023/07/02 07:56:23;;;;;;;8.23;4.20;;;24.20;99.90;;;;;;5060607;28;20205;-79
2023/07/02 07:58:50;;;;;;;10.90;3.70;;;23.90;99.90;;;;;;5070774;28;20216;-79
2023/07/02 08:01:17;;;;;;;10.80;4.40;;;23.90;99.90;;;;;;5040813;28;20228;-81
2023/07/02 08:03:44;;;;;;;10.48;5.07;;;23.90;99.90;;;;;;5048310;28;20220;-79
2023/07/02 08:06:14;;;;;;;10.35;4.47;;;24.00;99.90;;;;;;5072667;28;20254;-79
2023/07/02 08:08:41;;;;;;;7.53;3.97;;;23.50;99.90;;;;;;5054067;28;20292;-80
2023/07/02 08:11:08;;;;;;;8.73;4.72;;;22.70;99.90;;;;;;5050822;28;20232;-78
2023/07/02 08:13:35;;;;;;;11.55;4.00;;;22.30;99.90;;;;;;5050866;28;20232;-81
2023/07/02 08:16:03;;;;;;;11.90;4.30;;;22.30;99.90;;;;;;5062393;28;20685;-78
2023/07/02 08:18:30;;;;;;;10.32;4.82;;;22.60;99.90;;;;;;5065878;28;20216;-79
2023/07/02 08:20:57;;;;;;;12.52;4.47;;;22.50;99.90;;;;;;5045898;28;20234;-78
2023/07/02 08:23:24;;;;;;;10.70;4.50;;;22.10;99.90;;;;;;5054238;28;20243;-80
2023/07/02 08:25:50;;;;;;;14.60;4.70;;;21.90;99.90;;;;;;5062728;28;20201;-79
2023/07/02 08:28:17;;;;;;;7.38;3.88;;;21.70;99.90;;;;;;5040168;28;20196;-78
2023/07/02 08:30:44;;;;;;;12.30;4.53;;;21.30;99.90;;;;;;5045575;28;20243;-78
2023/07/02 08:33:11;;;;;;;8.40;3.40;;;21.40;99.90;;;;;;5044686;28;20203;-77
2023/07/02 08:35:38;;;;;;;5.80;3.55;;;21.80;99.90;;;;;;5061250;28;20215;-79
2023/07/02 08:38:08;;;;;;;12.40;4.40;;;22.40;99.90;;;;;;5049395;28;20265;-81
2023/07/02 08:40:35;;;;;;;8.77;3.38;;;22.60;99.90;;;;;;5051713;28;20688;-81
2023/07/02 08:43:02;;;;;;;10.55;3.90;;;22.30;99.90;;;;;;5052575;28;20197;-79
2023/07/02 08:45:30;;;;;;;8.10;3.72;;;22.30;99.90;;;;;;5047533;28;20568;-80
2023/07/02 08:47:57;;;;;;;10.38;3.60;;;22.40;99.90;;;;;;5050571;28;20196;-76
2023/07/02 08:50:25;;;;;;;8.48;3.97;;;22.60;99.90;;;;;;5058759;28;20323;-77
2023/07/02 08:52:53;;;;;;;8.48;3.45;;;22.50;99.50;;;;;;5059964;28;20199;-77
2023/07/02 08:55:22;;;;;;;12.27;3.83;;;22.40;99.30;;;;;;5038511;28;20276;-77
2023/07/02 08:57:52;;;;;;;9.25;3.55;;;22.00;99.50;;;;;;5071109;28;20548;-79
2023/07/02 09:00:19;;;;;;;10.32;3.42;;;21.90;99.90;;;;;;5063027;28;20224;-76
2023/07/02 09:02:49;;;;;;;7.97;3.63;;;21.60;99.90;;;;;;5064588;28;20284;-82
2023/07/02 09:05:34;;;;;;;8.27;3.60;;;21.50;99.90;;;;;;5041980;28;20600;-81
2023/07/02 09:08:18;;;;;;;10.38;3.92;;;21.10;99.90;;;;;;5042849;28;20338;-82
2023/07/02 09:10:50;;;;;;;11.98;4.10;;;20.90;99.90;;;;;;5057142;28;20208;-80
2023/07/02 09:13:22;;;;;;;8.63;4.05;;;20.70;99.90;;;;;;5038989;28;20299;-81
2023/07/02 09:16:03;;;;;;;8.82;3.70;;;20.80;99.90;;;;;;5028792;28;20217;-78
2023/07/02 09:18:32;;;;;;;11.15;4.00;;;20.90;99.90;;;;;;5022054;28;20239;-82
2023/07/02 09:20:59;;;;;;;9.02;3.67;;;20.90;99.90;;;;;;5032951;28;20217;-82
2023/07/02 09:23:35;;;;;;;7.57;3.47;;;21.20;99.90;;;;;;5032274;28;20212;-80
2023/07/02 09:26:06;;;;;;;6.22;3.70;;;21.80;99.90;;;;;;5033177;28;20687;-82
2023/07/02 09:28:35;;;;;;;8.98;4.05;;;22.40;99.90;;;;;;5028644;28;20590;-81
2023/07/02 09:31:02;;;;;;;10.48;4.47;;;22.80;99.90;;;;;;5033532;28;20308;-81
2023/07/02 09:33:29;;;;;;;8.48;3.80;;;22.70;99.90;;;;;;5028522;28;20205;-82
2023/07/02 09:35:56;;;;;;;8.55;3.80;;;22.60;99.90;;;;;;5032345;28;20304;-80
2023/07/02 09:38:26;;;;;;;8.52;4.18;;;22.90;99.90;;;;;;5026903;28;20252;-81
2023/07/02 09:40:56;;;;;;;10.82;4.15;;;23.10;99.60;;;;;;5029493;28;20699;-81
2023/07/02 09:43:38;;;;;;;9.80;4.28;;;;;;;;;;5033086;28;20292;-85
2023/07/02 09:46:06;;;;;;;10.38;4.38;;;23.50;98.40;;;;;;5016808;28;20217;-81
2023/07/02 09:48:35;;;;;;;9.02;4.43;;;23.70;98.60;;;;;;5037961;28;20209;-82
2023/07/02 09:51:03;;;;;;;7.22;3.53;;;23.90;98.40;;;;;;5033212;28;20225;-81
2023/07/02 09:53:31;;;;;;;10.63;4.18;;;24.10;97.60;;;;;;5032969;28;20288;-81
2023/07/02 09:55:58;;;;;;;9.18;3.75;;;24.00;96.70;;;;;;5023530;28;20308;-81
2023/07/02 09:58:33;;;;;;;6.97;3.78;;;23.80;96.70;;;;;;5034126;28;20212;-80
2023/07/02 10:01:02;;;;;;;7.10;3.90;;;23.60;97.30;;;;;;5025153;28;20316;-82
2023/07/02 10:03:50;;;;;;;8.20;3.70;;;23.50;97.50;;;;;;5020580;28;20278;-82
2023/07/02 10:06:19;;;;;;;7.05;4.03;;;23.50;97.80;;;;;;5044649;28;20211;-81
2023/07/02 10:09:13;;;;;;;9.15;3.90;;;23.20;97.40;;;;;;5056309;28;20200;-81
2023/07/02 10:12:19;;;;;;;8.95;4.13;;;22.70;97.20;;;;;;5051082;28;20251;-82
2023/07/02 10:14:53;;;;;;;15.60;3.70;;;22.40;97.80;;;;;;5048332;28;20218;-81
2023/07/02 10:17:34;;;;;;;5.88;3.55;;;22.20;99.00;;;;;;5032356;28;20201;-84
2023/07/02 10:20:13;;;;;;;6.45;3.08;;;22.30;99.90;;;;;;5025744;28;20229;-84
2023/07/02 10:28:32;;;;;;;;;;;;;;;;;;;;;
2023/07/02 10:39:05;;;;;;;6.10;2.78;;;22.00;98.10;;;;;;4767575;29;20745;-84
2023/07/02 10:46:42;;;;;;;8.32;3.30;;;21.70;98.90;;;;;;4733155;30;20247;-82
2023/07/02 10:49:33;;;;;;;6.47;2.60;;;21.60;98.80;;;;;;4732665;30;20234;-80
2023/07/02 10:52:20;;;;;;;;;;;;;;;;;;;;;
2023/07/02 11:02:51;;;;;;;4.93;2.55;;;22.20;96.70;;;;;;4873811;29;20201;-83
2023/07/02 11:06:32;;;;;;;;;;;;;;;;;;;;;
2023/07/02 11:09:52;;;;;;;8.07;2.40;;;22.40;96.10;;;;;;4846533;29;20192;-81
2023/07/02 11:12:39;;;;;;;5.38;2.30;;;22.30;96.30;;;;;;4854274;29;20292;-82
2023/07/02 11:15:41;;;;;;;5.47;2.35;;;22.30;96.70;;;;;;4931976;28;20229;-79
2023/07/02 11:18:57;;;;;;;3.97;2.20;;;22.20;96.30;;;;;;5027840;28;20265;-85
2023/07/02 11:21:38;;;;;;;7.68;2.20;;;22.40;95.80;;;;;;5056919;28;20224;-80
2023/07/02 11:24:33;;;;;;;6.10;2.30;;;22.50;95.70;;;;;;5051936;28;20306;-84
2023/07/02 11:27:34;;;;;;;6.25;2.70;;;22.70;95.50;;;;;;5039948;28;20189;-82
2023/07/02 11:30:18;;;;;;;4.47;2.15;;;22.40;94.70;;;;;;5065654;28;20213;-84
2023/07/02 11:36:38;;;;;;;4.85;2.13;;;21.90;95.00;;;;;;5055994;28;20612;-80
2023/07/02 11:43:00;;;;;;;4.78;2.35;;;22.10;95.20;;;;;;4968519;28;20219;-82
2023/07/02 11:45:29;;;;;;;7.07;2.50;;;21.90;95.50;;;;;;4967372;28;20238;-78
2023/07/02 11:48:02;;;;;;;4.75;2.40;;;21.80;96.00;;;;;;4945602;28;20296;-79
2023/07/02 11:50:32;;;;;;;4.78;2.88;;;22.00;96.30;;;;;;4944236;28;20218;-80
2023/07/02 11:53:12;;;;;;;6.68;2.30;;;22.20;95.10;;;;;;4945869;28;20923;-83
2023/07/02 11:55:51;;;;;;;6.28;2.38;;;22.50;94.70;;;;;;4984966;28;20204;-85
2023/07/02 11:58:21;;;;;;;6.28;2.50;;;22.60;94.40;;;;;;4962974;28;20212;-80
2023/07/02 12:00:48;;;;;;;3.58;2.00;;;22.60;94.70;;;;;;4949719;28;20222;-80
2023/07/02 12:03:18;;;;;;;5.80;2.38;;;22.80;95.10;;;;;;4950789;28;20361;-81
2023/07/02 12:05:51;;;;;;;5.05;2.88;;;23.00;94.20;;;;;;4950197;28;20225;-83
2023/07/02 12:08:19;;;;;;;5.50;2.58;;;23.00;93.90;;;;;;4953984;28;20213;-80
2023/07/02 12:10:49;;;;;;;5.07;3.03;;;23.00;93.30;;;;;;4961351;28;20227;-81
2023/07/02 12:13:16;;;;;;;4.05;2.13;;;22.40;92.80;;;;;;4963246;28;20270;-81
2023/07/02 12:15:51;;;;;;;6.07;3.15;;;22.30;92.90;;;;;;4963654;28;20234;-81
2023/07/02 12:18:22;;;;;;;5.40;2.47;;;22.00;93.40;;;;;;4954952;28;20505;-81
2023/07/02 12:20:49;;;;;;;6.72;2.20;;;21.90;93.70;;;;;;4953295;28;20295;-82
2023/07/02 12:23:17;;;;;;;7.40;2.90;;;22.10;94.20;;;;;;4955585;28;20822;-79
2023/07/02 12:25:44;;;;;;;6.65;2.70;;;22.30;94.00;;;;;;4955224;28;20258;-80
2023/07/02 12:28:11;;;;;;;8.93;3.42;;;22.30;94.00;;;;;;4952614;28;20246;-80
2023/07/02 12:30:42;;;;;;;6.38;3.00;;;22.60;94.10;;;;;;4957840;28;20231;-82
2023/07/02 12:33:12;;;;;;;5.30;2.67;;;22.90;93.90;;;;;;4948656;28;20215;-80
2023/07/02 12:35:46;;;;;;;5.63;2.72;;;22.90;93.70;;;;;;4953255;28;20238;-81
2023/07/02 12:38:13;;;;;;;7.47;2.92;;;23.10;93.60;;;;;;4947977;28;20680;-79
2023/07/02 12:40:48;;;;;;;7.18;3.38;;;23.10;93.40;;;;;;4957876;28;20267;-81
2023/07/02 12:43:15;;;;;;;5.57;2.78;;;22.90;93.20;;;;;;4963737;28;20215;-80
2023/07/02 12:45:49;;;;;;;5.57;2.78;;;22.80;93.60;;;;;;4945958;28;20712;-80
2023/07/02 12:48:18;;;;;;;6.50;2.85;;;22.60;93.20;;;;;;4953369;28;20269;-80
2023/07/02 12:51:15;;;;;;;6.40;3.25;;;22.50;93.60;;;;;;4947528;28;20211;-81
2023/07/02 12:53:48;;;;;;;5.38;2.58;;;22.70;93.60;;;;;;4947880;28;20295;-84
2023/07/02 12:56:18;;;;;;;7.07;3.03;;;23.00;93.10;;;;;;4968092;28;20662;-82
2023/07/02 12:58:44;;;;;;;6.93;3.17;;;23.10;93.20;;;;;;4966585;28;20203;-80
2023/07/02 13:01:11;;;;;;;7.85;3.30;;;23.00;93.00;;;;;;4953239;28;20293;-79
2023/07/02 13:03:45;;;;;;;7.93;3.45;;;22.80;92.60;;;;;;4954596;28;20237;-81
2023/07/02 13:06:39;;;;;;;;;;;;;;;;;;;;;
2023/07/02 13:09:11;;;;;;;7.30;2.75;;;22.90;92.60;;;;;;4972699;28;20222;-83
2023/07/02 13:11:39;;;;;;;6.13;2.90;;;23.00;92.90;;;;;;4972795;28;20208;-79
2023/07/02 13:14:06;;;;;;;6.38;2.80;;;23.10;92.40;;;;;;4983705;28;20216;-80
2023/07/02 13:16:36;;;;;;;5.90;2.90;;;22.90;92.10;;;;;;4968152;28;20760;-80
2023/07/02 13:19:04;;;;;;;4.45;2.85;;;22.90;92.20;;;;;;4980813;28;21229;-79
2023/07/02 13:21:31;;;;;;;6.88;3.35;;;22.90;92.50;;;;;;4956406;28;20242;-82
2023/07/02 13:23:58;;;;;;;5.75;3.08;;;23.00;92.20;;;;;;4986292;28;20208;-81
2023/07/02 13:26:25;;;;;;;6.63;3.30;;;23.30;91.90;;;;;;4968667;28;20242;-78
2023/07/02 13:29:06;;;;;;;;;;;;;;;;;;;;;
2023/07/02 13:31:46;;;;;;;7.38;3.03;;;23.00;91.10;;;;;;4969711;28;20239;-79
2023/07/02 13:34:19;;;;;;;5.72;2.97;;;22.80;91.80;;;;;;4954561;28;20221;-78
2023/07/02 13:36:46;;;;;;;9.27;3.25;;;22.80;92.10;;;;;;4981173;28;20220;-81